sensor_id;sensor_type;location;lat;lon;timestamp;P1;durP1;ratioP1;P2;durP2;ratioP2
41623;SDS011;27319;50.306;18.926;2022-12-08T00:02:01;41.10;;;19.17;;
41623;SDS011;27319;50.306;18.926;2022-12-08T00:05:02;46.20;;;20.10;;
41623;SDS011;27319;50.306;18.926;2022-12-08T00:08:22;35.05;;;18.90;;
41623;SDS011;27319;50.306;18.926;2022-12-08T00:11:41;27.98;;;16.52;;
41623;SDS011;27319;50.306;18.926;2022-12-08T00:14:43;33.65;;;17.38;;
41623;SDS011;27319;50.306;18.926;2022-12-08T00:17:49;32.13;;;18.48;;
41623;SDS011;27319;50.306;18.926;2022-12-08T00:20:56;29.58;;;16.05;;
41623;SDS011;27319;50.306;18.926;2022-12-08T00:23:57;32.28;;;17.98;;
41623;SDS011;27319;50.306;18.926;2022-12-08T00:26:59;30.50;;;18.52;;
41623;SDS011;27319;50.306;18.926;2022-12-08T00:30:01;32.08;;;18.20;;
41623;SDS011;27319;50.306;18.926;2022-12-08T00:33:02;33.67;;;18.27;;
41623;SDS011;27319;50.306;18.926;2022-12-08T00:36:06;32.58;;;17.30;;
41623;SDS011;27319;50.306;18.926;2022-12-08T00:39:09;27.85;;;15.98;;
41623;SDS011;27319;50.306;18.926;2022-12-08T00:42:11;25.52;;;15.20;;
41623;SDS011;27319;50.306;18.926;2022-12-08T00:45:12;31.88;;;16.50;;
41623;SDS011;27319;50.306;18.926;2022-12-08T00:48:13;33.40;;;18.27;;
41623;SDS011;27319;50.306;18.926;2022-12-08T00:51:14;31.50;;;18.45;;
41623;SDS011;27319;50.306;18.926;2022-12-08T00:54:15;30.75;;;16.23;;
41623;SDS011;27319;50.306;18.926;2022-12-08T00:57:17;29.02;;;16.70;;
41623;SDS011;27319;50.306;18.926;2022-12-08T01:00:18;29.08;;;17.23;;
41623;SDS011;27319;50.306;18.926;2022-12-08T01:03:19;30.92;;;17.48;;
41623;SDS011;27319;50.306;18.926;2022-12-08T01:06:20;31.48;;;17.08;;
41623;SDS011;27319;50.306;18.926;2022-12-08T01:09:21;27.90;;;16.20;;
41623;SDS011;27319;50.306;18.926;2022-12-08T01:12:22;29.50;;;15.98;;
41623;SDS011;27319;50.306;18.926;2022-12-08T01:16:24;28.33;;;15.43;;
41623;SDS011;27319;50.306;18.926;2022-12-08T01:20:23;27.67;;;15.95;;
41623;SDS011;27319;50.306;18.926;2022-12-08T01:24:24;28.27;;;16.40;;
41623;SDS011;27319;50.306;18.926;2022-12-08T01:28:25;29.13;;;16.52;;
41623;SDS011;27319;50.306;18.926;2022-12-08T01:32:25;28.45;;;14.88;;
41623;SDS011;27319;50.306;18.926;2022-12-08T01:36:27;29.15;;;16.23;;
41623;SDS011;27319;50.306;18.926;2022-12-08T01:40:27;26.08;;;15.77;;
41623;SDS011;27319;50.306;18.926;2022-12-08T01:47:37;25.75;;;15.63;;
41623;SDS011;27319;50.306;18.926;2022-12-08T01:50:42;25.42;;;14.13;;
41623;SDS011;27319;50.306;18.926;2022-12-08T01:53:43;24.20;;;15.43;;
41623;SDS011;27319;50.306;18.926;2022-12-08T01:57:55;22.42;;;14.77;;
41623;SDS011;27319;50.306;18.926;2022-12-08T02:01:45;24.30;;;14.45;;
41623;SDS011;27319;50.306;18.926;2022-12-08T02:05:45;26.17;;;13.93;;
41623;SDS011;27319;50.306;18.926;2022-12-08T02:09:46;23.63;;;14.25;;
41623;SDS011;27319;50.306;18.926;2022-12-08T02:13:46;22.05;;;13.15;;
41623;SDS011;27319;50.306;18.926;2022-12-08T02:17:49;25.05;;;13.77;;
41623;SDS011;27319;50.306;18.926;2022-12-08T02:21:53;24.50;;;13.63;;
41623;SDS011;27319;50.306;18.926;2022-12-08T02:37:02;24.30;;;14.32;;
41623;SDS011;27319;50.306;18.926;2022-12-08T02:45:26;23.80;;;13.30;;
41623;SDS011;27319;50.306;18.926;2022-12-08T02:48:33;22.95;;;13.77;;
41623;SDS011;27319;50.306;18.926;2022-12-08T02:51:34;26.17;;;16.73;;
41623;SDS011;27319;50.306;18.926;2022-12-08T02:54:35;27.10;;;17.20;;
41623;SDS011;27319;50.306;18.926;2022-12-08T03:10:37;19.40;;;13.48;;
41623;SDS011;27319;50.306;18.926;2022-12-08T03:13:43;33.00;;;21.50;;
41623;SDS011;27319;50.306;18.926;2022-12-08T03:16:48;24.35;;;15.07;;
41623;SDS011;27319;50.306;18.926;2022-12-08T03:19:53;23.83;;;14.70;;
41623;SDS011;27319;50.306;18.926;2022-12-08T03:22:56;35.50;;;26.52;;
41623;SDS011;27319;50.306;18.926;2022-12-08T03:26:01;26.38;;;18.17;;
41623;SDS011;27319;50.306;18.926;2022-12-08T03:29:07;30.67;;;22.13;;
41623;SDS011;27319;50.306;18.926;2022-12-08T03:32:15;28.17;;;19.88;;
41623;SDS011;27319;50.306;18.926;2022-12-08T03:35:52;28.98;;;20.02;;
41623;SDS011;27319;50.306;18.926;2022-12-08T03:39:53;30.35;;;21.48;;
41623;SDS011;27319;50.306;18.926;2022-12-08T03:43:54;28.00;;;19.55;;
41623;SDS011;27319;50.306;18.926;2022-12-08T03:47:34;38.47;;;29.17;;
41623;SDS011;27319;50.306;18.926;2022-12-08T03:50:35;29.33;;;20.33;;
41623;SDS011;27319;50.306;18.926;2022-12-08T03:53:36;27.90;;;19.13;;
41623;SDS011;27319;50.306;18.926;2022-12-08T03:56:37;29.73;;;19.08;;
41623;SDS011;27319;50.306;18.926;2022-12-08T03:59:39;25.67;;;16.80;;
41623;SDS011;27319;50.306;18.926;2022-12-08T04:03:39;26.40;;;18.10;;
41623;SDS011;27319;50.306;18.926;2022-12-08T04:07:40;24.30;;;15.50;;
41623;SDS011;27319;50.306;18.926;2022-12-08T04:11:01;25.20;;;15.18;;
41623;SDS011;27319;50.306;18.926;2022-12-08T04:14:03;24.63;;;14.65;;
41623;SDS011;27319;50.306;18.926;2022-12-08T04:18:03;22.63;;;13.90;;
41623;SDS011;27319;50.306;18.926;2022-12-08T04:22:04;28.70;;;14.45;;
41623;SDS011;27319;50.306;18.926;2022-12-08T04:26:05;26.65;;;15.30;;
41623;SDS011;27319;50.306;18.926;2022-12-08T04:30:05;27.02;;;15.70;;
41623;SDS011;27319;50.306;18.926;2022-12-08T04:34:08;27.42;;;15.18;;
41623;SDS011;27319;50.306;18.926;2022-12-08T04:38:07;25.92;;;15.65;;
41623;SDS011;27319;50.306;18.926;2022-12-08T04:42:07;22.98;;;14.60;;
41623;SDS011;27319;50.306;18.926;2022-12-08T04:46:08;25.02;;;15.27;;
41623;SDS011;27319;50.306;18.926;2022-12-08T04:49:09;30.30;;;15.35;;
41623;SDS011;27319;50.306;18.926;2022-12-08T04:52:10;27.63;;;17.70;;
41623;SDS011;27319;50.306;18.926;2022-12-08T04:55:11;62.78;;;32.45;;
41623;SDS011;27319;50.306;18.926;2022-12-08T04:58:13;57.92;;;32.45;;
41623;SDS011;27319;50.306;18.926;2022-12-08T05:01:16;46.72;;;26.30;;
41623;SDS011;27319;50.306;18.926;2022-12-08T05:04:17;42.05;;;24.02;;
41623;SDS011;27319;50.306;18.926;2022-12-08T05:07:18;34.00;;;21.25;;
41623;SDS011;27319;50.306;18.926;2022-12-08T05:10:19;32.10;;;17.45;;
41623;SDS011;27319;50.306;18.926;2022-12-08T05:13:20;35.50;;;19.95;;
41623;SDS011;27319;50.306;18.926;2022-12-08T05:16:21;28.13;;;17.90;;
41623;SDS011;27319;50.306;18.926;2022-12-08T05:19:22;33.03;;;19.83;;
41623;SDS011;27319;50.306;18.926;2022-12-08T05:22:23;35.83;;;23.52;;
41623;SDS011;27319;50.306;18.926;2022-12-08T05:25:23;23.60;;;15.93;;
41623;SDS011;27319;50.306;18.926;2022-12-08T05:28:25;29.08;;;16.88;;
41623;SDS011;27319;50.306;18.926;2022-12-08T05:31:26;24.40;;;14.20;;
41623;SDS011;27319;50.306;18.926;2022-12-08T05:34:27;24.00;;;15.20;;
41623;SDS011;27319;50.306;18.926;2022-12-08T05:37:27;30.67;;;19.65;;
41623;SDS011;27319;50.306;18.926;2022-12-08T05:40:28;31.83;;;21.10;;
41623;SDS011;27319;50.306;18.926;2022-12-08T05:43:29;39.65;;;24.80;;
41623;SDS011;27319;50.306;18.926;2022-12-08T05:46:30;38.45;;;23.13;;
41623;SDS011;27319;50.306;18.926;2022-12-08T05:49:31;30.20;;;19.10;;
41623;SDS011;27319;50.306;18.926;2022-12-08T05:52:32;31.27;;;17.55;;
41623;SDS011;27319;50.306;18.926;2022-12-08T05:55:33;26.92;;;16.13;;
41623;SDS011;27319;50.306;18.926;2022-12-08T05:58:34;29.05;;;16.70;;
41623;SDS011;27319;50.306;18.926;2022-12-08T06:01:35;30.05;;;17.65;;
41623;SDS011;27319;50.306;18.926;2022-12-08T06:04:36;26.58;;;15.98;;
41623;SDS011;27319;50.306;18.926;2022-12-08T06:07:37;23.45;;;14.55;;
41623;SDS011;27319;50.306;18.926;2022-12-08T06:10:38;26.05;;;16.42;;
41623;SDS011;27319;50.306;18.926;2022-12-08T06:13:40;28.15;;;17.63;;
41623;SDS011;27319;50.306;18.926;2022-12-08T06:16:41;28.65;;;16.83;;
41623;SDS011;27319;50.306;18.926;2022-12-08T06:19:42;31.58;;;18.90;;
41623;SDS011;27319;50.306;18.926;2022-12-08T06:22:43;29.25;;;19.00;;
41623;SDS011;27319;50.306;18.926;2022-12-08T06:25:44;28.40;;;17.48;;
41623;SDS011;27319;50.306;18.926;2022-12-08T06:28:45;38.45;;;23.00;;
41623;SDS011;27319;50.306;18.926;2022-12-08T06:31:47;28.70;;;17.83;;
41623;SDS011;27319;50.306;18.926;2022-12-08T06:34:48;28.35;;;18.67;;
41623;SDS011;27319;50.306;18.926;2022-12-08T06:37:49;31.63;;;21.27;;
41623;SDS011;27319;50.306;18.926;2022-12-08T06:40:54;40.22;;;22.77;;
41623;SDS011;27319;50.306;18.926;2022-12-08T06:44:54;35.80;;;21.80;;
41623;SDS011;27319;50.306;18.926;2022-12-08T06:47:55;42.72;;;19.30;;
41623;SDS011;27319;50.306;18.926;2022-12-08T06:50:56;28.95;;;17.13;;
41623;SDS011;27319;50.306;18.926;2022-12-08T06:53:57;27.48;;;16.70;;
41623;SDS011;27319;50.306;18.926;2022-12-08T06:56:58;28.38;;;17.10;;
41623;SDS011;27319;50.306;18.926;2022-12-08T06:59:59;35.35;;;18.20;;
41623;SDS011;27319;50.306;18.926;2022-12-08T07:02:59;28.52;;;17.88;;
41623;SDS011;27319;50.306;18.926;2022-12-08T07:06:01;27.98;;;16.42;;
41623;SDS011;27319;50.306;18.926;2022-12-08T07:09:02;35.40;;;22.15;;
41623;SDS011;27319;50.306;18.926;2022-12-08T07:12:03;34.10;;;20.83;;
41623;SDS011;27319;50.306;18.926;2022-12-08T07:15:04;34.78;;;23.38;;
41623;SDS011;27319;50.306;18.926;2022-12-08T07:18:05;36.70;;;22.60;;
41623;SDS011;27319;50.306;18.926;2022-12-08T07:21:10;37.70;;;24.15;;
41623;SDS011;27319;50.306;18.926;2022-12-08T07:24:12;34.05;;;19.20;;
41623;SDS011;27319;50.306;18.926;2022-12-08T07:27:13;36.50;;;21.17;;
41623;SDS011;27319;50.306;18.926;2022-12-08T07:30:14;33.92;;;19.48;;
41623;SDS011;27319;50.306;18.926;2022-12-08T07:33:15;38.47;;;23.17;;
41623;SDS011;27319;50.306;18.926;2022-12-08T07:36:16;37.20;;;22.05;;
41623;SDS011;27319;50.306;18.926;2022-12-08T07:39:17;33.38;;;21.33;;
41623;SDS011;27319;50.306;18.926;2022-12-08T07:42:18;34.50;;;19.98;;
41623;SDS011;27319;50.306;18.926;2022-12-08T07:45:19;35.58;;;19.65;;
41623;SDS011;27319;50.306;18.926;2022-12-08T07:48:20;35.38;;;20.38;;
41623;SDS011;27319;50.306;18.926;2022-12-08T07:51:21;32.67;;;19.75;;
41623;SDS011;27319;50.306;18.926;2022-12-08T07:54:22;35.08;;;18.52;;
41623;SDS011;27319;50.306;18.926;2022-12-08T07:57:23;32.60;;;18.58;;
41623;SDS011;27319;50.306;18.926;2022-12-08T08:00:48;39.28;;;22.65;;
41623;SDS011;27319;50.306;18.926;2022-12-08T08:05:04;34.30;;;21.52;;
41623;SDS011;27319;50.306;18.926;2022-12-08T08:09:04;36.00;;;21.50;;
41623;SDS011;27319;50.306;18.926;2022-12-08T08:12:05;38.85;;;22.00;;
41623;SDS011;27319;50.306;18.926;2022-12-08T08:15:07;37.47;;;22.52;;
41623;SDS011;27319;50.306;18.926;2022-12-08T08:18:08;37.33;;;22.42;;
41623;SDS011;27319;50.306;18.926;2022-12-08T08:21:09;36.53;;;20.60;;
41623;SDS011;27319;50.306;18.926;2022-12-08T08:24:10;42.72;;;22.23;;
41623;SDS011;27319;50.306;18.926;2022-12-08T08:27:11;34.80;;;20.27;;
41623;SDS011;27319;50.306;18.926;2022-12-08T08:30:13;31.45;;;18.17;;
41623;SDS011;27319;50.306;18.926;2022-12-08T08:33:14;34.10;;;20.45;;
41623;SDS011;27319;50.306;18.926;2022-12-08T08:36:16;30.52;;;17.80;;
41623;SDS011;27319;50.306;18.926;2022-12-08T08:39:16;27.85;;;17.25;;
41623;SDS011;27319;50.306;18.926;2022-12-08T08:42:18;28.13;;;18.13;;
41623;SDS011;27319;50.306;18.926;2022-12-08T08:45:18;30.42;;;17.58;;
41623;SDS011;27319;50.306;18.926;2022-12-08T08:48:19;34.08;;;19.52;;
41623;SDS011;27319;50.306;18.926;2022-12-08T08:51:20;32.05;;;18.65;;
41623;SDS011;27319;50.306;18.926;2022-12-08T08:54:21;29.85;;;18.17;;
41623;SDS011;27319;50.306;18.926;2022-12-08T08:57:22;31.13;;;17.85;;
41623;SDS011;27319;50.306;18.926;2022-12-08T09:00:23;29.38;;;18.65;;
41623;SDS011;27319;50.306;18.926;2022-12-08T09:03:24;33.22;;;17.65;;
41623;SDS011;27319;50.306;18.926;2022-12-08T09:06:25;28.33;;;18.33;;
41623;SDS011;27319;50.306;18.926;2022-12-08T09:09:27;29.02;;;18.00;;
41623;SDS011;27319;50.306;18.926;2022-12-08T09:12:49;29.42;;;17.63;;
41623;SDS011;27319;50.306;18.926;2022-12-08T09:15:50;30.85;;;18.30;;
41623;SDS011;27319;50.306;18.926;2022-12-08T09:18:51;28.83;;;17.30;;
41623;SDS011;27319;50.306;18.926;2022-12-08T09:21:52;33.53;;;18.40;;
41623;SDS011;27319;50.306;18.926;2022-12-08T09:24:53;30.23;;;18.23;;
41623;SDS011;27319;50.306;18.926;2022-12-08T09:27:54;34.65;;;19.10;;
41623;SDS011;27319;50.306;18.926;2022-12-08T09:30:55;32.25;;;18.30;;
41623;SDS011;27319;50.306;18.926;2022-12-08T09:33:56;34.70;;;19.35;;
41623;SDS011;27319;50.306;18.926;2022-12-08T09:36:57;32.05;;;20.23;;
41623;SDS011;27319;50.306;18.926;2022-12-08T09:39:58;37.50;;;19.35;;
41623;SDS011;27319;50.306;18.926;2022-12-08T09:43:10;34.83;;;19.42;;
41623;SDS011;27319;50.306;18.926;2022-12-08T09:46:31;37.10;;;19.98;;
41623;SDS011;27319;50.306;18.926;2022-12-08T09:49:38;33.70;;;18.60;;
41623;SDS011;27319;50.306;18.926;2022-12-08T09:52:59;34.40;;;18.50;;
41623;SDS011;27319;50.306;18.926;2022-12-08T09:56:16;29.50;;;18.23;;
41623;SDS011;27319;50.306;18.926;2022-12-08T09:59:21;34.75;;;19.10;;
41623;SDS011;27319;50.306;18.926;2022-12-08T10:02:31;44.30;;;24.02;;
41623;SDS011;27319;50.306;18.926;2022-12-08T10:05:32;34.85;;;18.55;;
41623;SDS011;27319;50.306;18.926;2022-12-08T10:08:41;26.98;;;16.38;;
41623;SDS011;27319;50.306;18.926;2022-12-08T10:12:12;32.03;;;17.13;;
41623;SDS011;27319;50.306;18.926;2022-12-08T10:18:40;27.35;;;14.75;;
41623;SDS011;27319;50.306;18.926;2022-12-08T10:21:42;24.63;;;14.20;;
41623;SDS011;27319;50.306;18.926;2022-12-08T10:24:45;26.95;;;15.35;;
41623;SDS011;27319;50.306;18.926;2022-12-08T10:27:54;28.27;;;16.33;;
41623;SDS011;27319;50.306;18.926;2022-12-08T10:30:57;28.50;;;15.25;;
41623;SDS011;27319;50.306;18.926;2022-12-08T10:33:59;29.35;;;17.65;;
41623;SDS011;27319;50.306;18.926;2022-12-08T10:37:09;29.25;;;14.60;;
41623;SDS011;27319;50.306;18.926;2022-12-08T10:40:11;24.25;;;13.60;;
41623;SDS011;27319;50.306;18.926;2022-12-08T10:44:14;30.13;;;13.68;;
41623;SDS011;27319;50.306;18.926;2022-12-08T10:47:33;24.73;;;14.25;;
41623;SDS011;27319;50.306;18.926;2022-12-08T10:50:58;29.83;;;17.83;;
41623;SDS011;27319;50.306;18.926;2022-12-08T10:54:00;27.70;;;14.98;;
41623;SDS011;27319;50.306;18.926;2022-12-08T10:57:01;32.05;;;17.30;;
41623;SDS011;27319;50.306;18.926;2022-12-08T11:00:02;29.08;;;17.92;;
41623;SDS011;27319;50.306;18.926;2022-12-08T11:03:04;29.05;;;16.50;;
41623;SDS011;27319;50.306;18.926;2022-12-08T11:07:08;27.67;;;13.75;;
41623;SDS011;27319;50.306;18.926;2022-12-08T11:11:08;30.98;;;16.38;;
41623;SDS011;27319;50.306;18.926;2022-12-08T11:14:14;35.25;;;18.13;;
41623;SDS011;27319;50.306;18.926;2022-12-08T11:20:22;24.77;;;14.70;;
41623;SDS011;27319;50.306;18.926;2022-12-08T11:23:24;26.17;;;14.05;;
41623;SDS011;27319;50.306;18.926;2022-12-08T11:27:26;20.67;;;13.30;;
41623;SDS011;27319;50.306;18.926;2022-12-08T11:31:34;24.42;;;13.70;;
41623;SDS011;27319;50.306;18.926;2022-12-08T11:35:36;28.50;;;15.57;;
41623;SDS011;27319;50.306;18.926;2022-12-08T11:39:34;26.88;;;14.70;;
41623;SDS011;27319;50.306;18.926;2022-12-08T11:43:38;23.02;;;13.85;;
41623;SDS011;27319;50.306;18.926;2022-12-08T11:47:33;23.17;;;12.55;;
41623;SDS011;27319;50.306;18.926;2022-12-08T11:57:07;32.58;;;15.38;;
41623;SDS011;27319;50.306;18.926;2022-12-08T12:00:19;28.60;;;13.75;;
41623;SDS011;27319;50.306;18.926;2022-12-08T12:16:31;20.38;;;12.15;;
41623;SDS011;27319;50.306;18.926;2022-12-08T12:19:52;35.25;;;15.77;;
41623;SDS011;27319;50.306;18.926;2022-12-08T12:23:00;19.52;;;11.35;;
41623;SDS011;27319;50.306;18.926;2022-12-08T12:26:06;16.88;;;11.32;;
41623;SDS011;27319;50.306;18.926;2022-12-08T12:29:54;21.80;;;11.55;;
41623;SDS011;27319;50.306;18.926;2022-12-08T12:34:04;19.17;;;10.95;;
41623;SDS011;27319;50.306;18.926;2022-12-08T12:38:04;22.25;;;13.05;;
41623;SDS011;27319;50.306;18.926;2022-12-08T12:52:43;21.17;;;11.20;;
41623;SDS011;27319;50.306;18.926;2022-12-08T12:58:45;18.70;;;10.77;;
41623;SDS011;27319;50.306;18.926;2022-12-08T13:01:55;18.48;;;11.80;;
41623;SDS011;27319;50.306;18.926;2022-12-08T13:08:19;19.73;;;12.00;;
41623;SDS011;27319;50.306;18.926;2022-12-08T13:11:23;21.90;;;11.80;;
41623;SDS011;27319;50.306;18.926;2022-12-08T13:14:29;25.13;;;14.32;;
41623;SDS011;27319;50.306;18.926;2022-12-08T13:17:34;28.00;;;16.35;;
41623;SDS011;27319;50.306;18.926;2022-12-08T13:20:41;23.65;;;15.40;;
41623;SDS011;27319;50.306;18.926;2022-12-08T13:33:40;31.70;;;19.15;;
41623;SDS011;27319;50.306;18.926;2022-12-08T13:36:56;35.70;;;20.38;;
41623;SDS011;27319;50.306;18.926;2022-12-08T13:40:13;36.75;;;19.92;;
41623;SDS011;27319;50.306;18.926;2022-12-08T13:47:21;45.35;;;22.92;;
41623;SDS011;27319;50.306;18.926;2022-12-08T13:50:29;44.60;;;25.33;;
41623;SDS011;27319;50.306;18.926;2022-12-08T13:53:38;49.63;;;27.08;;
41623;SDS011;27319;50.306;18.926;2022-12-08T13:57:38;46.47;;;26.70;;
41623;SDS011;27319;50.306;18.926;2022-12-08T14:01:42;63.97;;;25.25;;
41623;SDS011;27319;50.306;18.926;2022-12-08T14:05:43;46.00;;;25.13;;
41623;SDS011;27319;50.306;18.926;2022-12-08T14:08:50;44.25;;;26.30;;
41623;SDS011;27319;50.306;18.926;2022-12-08T14:15:03;44.33;;;25.52;;
41623;SDS011;27319;50.306;18.926;2022-12-08T14:18:18;44.38;;;24.83;;
41623;SDS011;27319;50.306;18.926;2022-12-08T14:21:22;49.90;;;25.30;;
41623;SDS011;27319;50.306;18.926;2022-12-08T14:24:29;78.85;;;32.78;;
41623;SDS011;27319;50.306;18.926;2022-12-08T14:27:38;73.28;;;34.78;;
41623;SDS011;27319;50.306;18.926;2022-12-08T14:30:39;78.40;;;31.33;;
41623;SDS011;27319;50.306;18.926;2022-12-08T14:33:40;62.13;;;31.88;;
41623;SDS011;27319;50.306;18.926;2022-12-08T14:36:42;60.95;;;32.67;;
41623;SDS011;27319;50.306;18.926;2022-12-08T14:39:42;55.45;;;31.85;;
41623;SDS011;27319;50.306;18.926;2022-12-08T14:42:48;55.03;;;30.65;;
41623;SDS011;27319;50.306;18.926;2022-12-08T14:45:51;55.22;;;31.60;;
41623;SDS011;27319;50.306;18.926;2022-12-08T14:48:56;53.90;;;30.33;;
41623;SDS011;27319;50.306;18.926;2022-12-08T14:51:58;49.25;;;28.05;;
41623;SDS011;27319;50.306;18.926;2022-12-08T14:55:00;50.50;;;29.63;;
41623;SDS011;27319;50.306;18.926;2022-12-08T14:58:01;54.28;;;29.90;;
41623;SDS011;27319;50.306;18.926;2022-12-08T15:01:02;51.90;;;30.13;;
41623;SDS011;27319;50.306;18.926;2022-12-08T15:04:07;56.53;;;32.20;;
41623;SDS011;27319;50.306;18.926;2022-12-08T15:07:16;57.10;;;33.13;;
41623;SDS011;27319;50.306;18.926;2022-12-08T15:10:22;57.17;;;33.38;;
41623;SDS011;27319;50.306;18.926;2022-12-08T15:13:24;75.68;;;48.72;;
41623;SDS011;27319;50.306;18.926;2022-12-08T15:16:26;89.22;;;54.97;;
41623;SDS011;27319;50.306;18.926;2022-12-08T15:19:32;91.15;;;55.00;;
41623;SDS011;27319;50.306;18.926;2022-12-08T15:22:33;92.00;;;54.78;;
41623;SDS011;27319;50.306;18.926;2022-12-08T15:25:34;80.80;;;48.65;;
41623;SDS011;27319;50.306;18.926;2022-12-08T15:28:36;90.22;;;46.63;;
41623;SDS011;27319;50.306;18.926;2022-12-08T15:31:37;121.22;;;52.67;;
41623;SDS011;27319;50.306;18.926;2022-12-08T15:34:38;114.88;;;50.42;;
41623;SDS011;27319;50.306;18.926;2022-12-08T15:37:39;99.53;;;48.40;;
41623;SDS011;27319;50.306;18.926;2022-12-08T15:40:40;84.45;;;42.97;;
41623;SDS011;27319;50.306;18.926;2022-12-08T15:43:41;75.00;;;40.38;;
41623;SDS011;27319;50.306;18.926;2022-12-08T15:46:42;70.60;;;36.40;;
41623;SDS011;27319;50.306;18.926;2022-12-08T15:49:44;71.30;;;40.28;;
41623;SDS011;27319;50.306;18.926;2022-12-08T15:52:46;81.18;;;42.75;;
41623;SDS011;27319;50.306;18.926;2022-12-08T15:55:47;83.47;;;47.00;;
41623;SDS011;27319;50.306;18.926;2022-12-08T15:58:48;78.40;;;44.58;;
41623;SDS011;27319;50.306;18.926;2022-12-08T16:02:49;78.43;;;45.72;;
41623;SDS011;27319;50.306;18.926;2022-12-08T16:06:59;80.47;;;42.50;;
41623;SDS011;27319;50.306;18.926;2022-12-08T16:11:02;62.83;;;38.08;;
41623;SDS011;27319;50.306;18.926;2022-12-08T16:14:22;66.45;;;37.92;;
41623;SDS011;27319;50.306;18.926;2022-12-08T16:18:24;60.50;;;35.85;;
41623;SDS011;27319;50.306;18.926;2022-12-08T16:21:27;55.80;;;34.47;;
41623;SDS011;27319;50.306;18.926;2022-12-08T16:24:29;61.28;;;34.90;;
41623;SDS011;27319;50.306;18.926;2022-12-08T16:27:31;62.80;;;36.08;;
41623;SDS011;27319;50.306;18.926;2022-12-08T16:30:35;64.20;;;37.42;;
41623;SDS011;27319;50.306;18.926;2022-12-08T16:33:36;66.63;;;39.80;;
41623;SDS011;27319;50.306;18.926;2022-12-08T16:36:37;61.92;;;36.63;;
41623;SDS011;27319;50.306;18.926;2022-12-08T16:39:38;57.45;;;35.67;;
41623;SDS011;27319;50.306;18.926;2022-12-08T16:42:39;60.10;;;38.20;;
41623;SDS011;27319;50.306;18.926;2022-12-08T16:45:42;67.68;;;38.95;;
41623;SDS011;27319;50.306;18.926;2022-12-08T16:48:43;67.72;;;40.85;;
41623;SDS011;27319;50.306;18.926;2022-12-08T16:52:44;69.68;;;41.17;;
41623;SDS011;27319;50.306;18.926;2022-12-08T16:56:44;67.97;;;38.47;;
41623;SDS011;27319;50.306;18.926;2022-12-08T17:00:45;70.57;;;41.35;;
41623;SDS011;27319;50.306;18.926;2022-12-08T17:04:46;75.88;;;45.65;;
41623;SDS011;27319;50.306;18.926;2022-12-08T17:07:48;80.20;;;48.22;;
41623;SDS011;27319;50.306;18.926;2022-12-08T17:11:47;75.20;;;45.17;;
41623;SDS011;27319;50.306;18.926;2022-12-08T17:15:48;72.10;;;42.25;;
41623;SDS011;27319;50.306;18.926;2022-12-08T17:19:49;74.85;;;45.47;;
41623;SDS011;27319;50.306;18.926;2022-12-08T17:23:52;76.30;;;44.92;;
41623;SDS011;27319;50.306;18.926;2022-12-08T17:27:53;75.03;;;43.15;;
41623;SDS011;27319;50.306;18.926;2022-12-08T17:31:53;69.05;;;41.72;;
41623;SDS011;27319;50.306;18.926;2022-12-08T17:35:54;76.25;;;47.28;;
41623;SDS011;27319;50.306;18.926;2022-12-08T17:39:55;79.68;;;46.30;;
41623;SDS011;27319;50.306;18.926;2022-12-08T17:43:55;77.15;;;46.15;;
41623;SDS011;27319;50.306;18.926;2022-12-08T17:47:32;81.32;;;50.53;;
41623;SDS011;27319;50.306;18.926;2022-12-08T17:50:40;86.95;;;51.08;;
41623;SDS011;27319;50.306;18.926;2022-12-08T17:53:43;96.90;;;51.60;;
41623;SDS011;27319;50.306;18.926;2022-12-08T17:56:44;80.28;;;48.80;;
41623;SDS011;27319;50.306;18.926;2022-12-08T17:59:45;90.63;;;53.10;;
41623;SDS011;27319;50.306;18.926;2022-12-08T18:02:46;85.75;;;47.20;;
41623;SDS011;27319;50.306;18.926;2022-12-08T18:06:47;72.35;;;40.88;;
41623;SDS011;27319;50.306;18.926;2022-12-08T18:10:48;70.95;;;38.63;;
41623;SDS011;27319;50.306;18.926;2022-12-08T18:13:49;62.30;;;35.60;;
41623;SDS011;27319;50.306;18.926;2022-12-08T18:16:50;63.33;;;34.85;;
41623;SDS011;27319;50.306;18.926;2022-12-08T18:19:51;61.45;;;33.97;;
41623;SDS011;27319;50.306;18.926;2022-12-08T18:22:52;58.40;;;33.08;;
41623;SDS011;27319;50.306;18.926;2022-12-08T18:25:53;54.35;;;31.98;;
41623;SDS011;27319;50.306;18.926;2022-12-08T18:28:54;60.03;;;35.40;;
41623;SDS011;27319;50.306;18.926;2022-12-08T18:31:55;53.53;;;31.98;;
41623;SDS011;27319;50.306;18.926;2022-12-08T18:34:56;52.08;;;32.10;;
41623;SDS011;27319;50.306;18.926;2022-12-08T18:38:57;55.13;;;30.98;;
41623;SDS011;27319;50.306;18.926;2022-12-08T18:42:40;61.88;;;32.90;;
41623;SDS011;27319;50.306;18.926;2022-12-08T18:46:40;62.47;;;34.28;;
41623;SDS011;27319;50.306;18.926;2022-12-08T18:49:42;60.88;;;34.42;;
41623;SDS011;27319;50.306;18.926;2022-12-08T18:52:43;64.60;;;35.15;;
41623;SDS011;27319;50.306;18.926;2022-12-08T18:56:43;58.95;;;34.28;;
41623;SDS011;27319;50.306;18.926;2022-12-08T19:00:43;55.42;;;34.28;;
41623;SDS011;27319;50.306;18.926;2022-12-08T19:04:40;63.03;;;34.63;;
41623;SDS011;27319;50.306;18.926;2022-12-08T19:08:40;69.80;;;35.80;;
41623;SDS011;27319;50.306;18.926;2022-12-08T19:12:41;64.45;;;38.60;;
41623;SDS011;27319;50.306;18.926;2022-12-08T19:15:42;61.70;;;38.13;;
41623;SDS011;27319;50.306;18.926;2022-12-08T19:18:43;70.55;;;40.60;;
41623;SDS011;27319;50.306;18.926;2022-12-08T19:21:46;69.85;;;38.28;;
41623;SDS011;27319;50.306;18.926;2022-12-08T19:24:47;63.25;;;37.50;;
41623;SDS011;27319;50.306;18.926;2022-12-08T19:27:48;65.25;;;39.50;;
41623;SDS011;27319;50.306;18.926;2022-12-08T19:31:49;98.60;;;52.15;;
41623;SDS011;27319;50.306;18.926;2022-12-08T19:35:49;108.80;;;56.80;;
41623;SDS011;27319;50.306;18.926;2022-12-08T19:39:53;112.03;;;56.42;;
41623;SDS011;27319;50.306;18.926;2022-12-08T19:43:52;93.23;;;52.90;;
41623;SDS011;27319;50.306;18.926;2022-12-08T19:47:52;97.05;;;54.45;;
41623;SDS011;27319;50.306;18.926;2022-12-08T19:50:52;105.60;;;58.13;;
41623;SDS011;27319;50.306;18.926;2022-12-08T19:53:54;101.60;;;53.88;;
41623;SDS011;27319;50.306;18.926;2022-12-08T19:56:54;115.97;;;62.55;;
41623;SDS011;27319;50.306;18.926;2022-12-08T19:59:55;114.53;;;62.72;;
41623;SDS011;27319;50.306;18.926;2022-12-08T20:02:56;117.63;;;64.50;;
41623;SDS011;27319;50.306;18.926;2022-12-08T20:06:57;104.97;;;59.90;;
41623;SDS011;27319;50.306;18.926;2022-12-08T20:10:57;101.97;;;57.60;;
41623;SDS011;27319;50.306;18.926;2022-12-08T20:13:58;103.40;;;58.72;;
41623;SDS011;27319;50.306;18.926;2022-12-08T20:16:59;107.45;;;60.17;;
41623;SDS011;27319;50.306;18.926;2022-12-08T20:20:00;106.20;;;59.53;;
41623;SDS011;27319;50.306;18.926;2022-12-08T20:24:01;100.68;;;55.38;;
41623;SDS011;27319;50.306;18.926;2022-12-08T20:28:02;100.25;;;55.45;;
41623;SDS011;27319;50.306;18.926;2022-12-08T20:32:02;100.97;;;59.83;;